createdAt,value
2023-05-19T00:01:49.208Z,10.70
2023-05-19T00:04:16.781Z,8.27
2023-05-19T00:06:44.939Z,8.52
2023-05-19T00:09:12.203Z,7.80
2023-05-19T00:11:40.526Z,8.07
2023-05-19T00:14:09.815Z,7.93
2023-05-19T00:16:40.366Z,7.85
2023-05-19T00:19:10.437Z,8.73
2023-05-19T00:21:40.562Z,8.33
2023-05-19T00:24:07.706Z,8.07
2023-05-19T00:26:34.472Z,9.20
2023-05-19T00:29:01.128Z,7.25
2023-05-19T00:31:27.814Z,9.20
2023-05-19T00:33:54.477Z,7.33
2023-05-19T00:36:21.255Z,7.03
2023-05-19T00:38:47.846Z,8.15
2023-05-19T00:41:14.463Z,8.50
2023-05-19T00:43:41.209Z,9.05
2023-05-19T00:46:07.940Z,6.83
2023-05-19T00:48:34.525Z,9.60
2023-05-19T00:51:04.582Z,7.70
2023-05-19T00:53:35.640Z,6.43
2023-05-19T00:56:03.382Z,9.93
2023-05-19T00:58:31.264Z,9.10
2023-05-19T01:01:04.755Z,6.63
2023-05-19T01:03:35.293Z,7.88
2023-05-19T01:06:05.413Z,8.95
2023-05-19T01:08:33.583Z,8.75
2023-05-19T01:11:00.485Z,8.40
2023-05-19T01:13:30.890Z,8.50
2023-05-19T01:16:07.129Z,6.68
2023-05-19T01:19:11.304Z,8.85
2023-05-19T01:22:01.335Z,9.32
2023-05-19T01:24:47.026Z,9.57
2023-05-19T01:27:34.698Z,6.55
2023-05-19T01:30:17.492Z,7.75
2023-05-19T01:32:45.635Z,8.18
2023-05-19T01:35:14.337Z,8.75
2023-05-19T01:37:41.500Z,8.27
2023-05-19T01:40:09.210Z,9.32
2023-05-19T01:42:40.083Z,8.48
2023-05-19T01:45:10.488Z,7.50
2023-05-19T01:47:41.096Z,6.50
2023-05-19T01:50:08.035Z,12.87
2023-05-19T01:52:34.625Z,11.07
2023-05-19T01:55:01.190Z,7.60
2023-05-19T01:57:46.046Z,9.48
2023-05-19T02:00:23.243Z,9.52
2023-05-19T02:03:07.810Z,8.87
2023-05-19T02:05:59.236Z,8.43
2023-05-19T02:08:43.672Z,7.88
2023-05-19T02:11:19.676Z,10.90
2023-05-19T02:13:53.590Z,8.48
2023-05-19T02:16:24.252Z,7.43
2023-05-19T02:18:54.034Z,13.65
2023-05-19T02:21:20.927Z,10.45
2023-05-19T02:23:48.457Z,8.95
2023-05-19T02:26:15.069Z,7.90
2023-05-19T02:28:41.635Z,8.80
2023-05-19T02:31:10.215Z,8.40
2023-05-19T02:33:37.624Z,11.65
2023-05-19T02:36:04.750Z,9.63
2023-05-19T02:38:31.834Z,9.07
2023-05-19T02:40:58.766Z,8.97
2023-05-19T02:43:25.395Z,9.38
2023-05-19T02:45:51.949Z,9.20
2023-05-19T02:48:18.564Z,8.05
2023-05-19T02:50:45.158Z,7.68
2023-05-19T02:53:11.747Z,7.43
2023-05-19T02:55:38.387Z,8.90
2023-05-19T02:58:05.434Z,7.50
2023-05-19T03:00:32.226Z,9.77
2023-05-19T03:03:03.014Z,10.93
2023-05-19T03:05:30.535Z,8.17
2023-05-19T03:07:57.220Z,6.85
2023-05-19T03:10:23.808Z,11.27
2023-05-19T03:12:51.162Z,8.02
2023-05-19T03:15:18.940Z,10.38
2023-05-19T03:17:45.735Z,9.30
2023-05-19T03:20:12.620Z,10.60
2023-05-19T03:22:39.198Z,9.60
2023-05-19T03:25:06.102Z,9.18
2023-05-19T03:27:32.677Z,6.88
2023-05-19T03:29:59.240Z,8.63
2023-05-19T03:32:25.924Z,8.48
2023-05-19T03:34:52.624Z,12.13
2023-05-19T03:37:19.182Z,11.73
2023-05-19T03:39:45.825Z,9.38
2023-05-19T03:42:12.357Z,10.47
2023-05-19T03:44:38.936Z,8.38
2023-05-19T03:47:05.881Z,7.75
2023-05-19T03:49:34.085Z,8.63
2023-05-19T03:52:03.460Z,10.52
2023-05-19T03:54:30.177Z,8.53
2023-05-19T03:56:56.776Z,10.38
2023-05-19T03:59:23.826Z,7.70
2023-05-19T04:01:51.770Z,8.20
2023-05-19T04:04:18.517Z,8.30
2023-05-19T04:06:45.870Z,8.90
2023-05-19T04:09:14.197Z,9.88
2023-05-19T04:11:41.700Z,7.25
2023-05-19T04:14:09.123Z,8.05
2023-05-19T04:16:36.209Z,9.15
2023-05-19T04:19:02.906Z,11.20
2023-05-19T04:21:29.480Z,9.32
2023-05-19T04:23:56.231Z,9.30
2023-05-19T04:26:25.064Z,9.27
2023-05-19T04:28:52.187Z,7.97
2023-05-19T04:31:18.779Z,9.60
2023-05-19T04:33:46.207Z,7.60
2023-05-19T04:36:13.897Z,10.77
2023-05-19T04:38:40.707Z,10.48
2023-05-19T04:41:11.033Z,9.15
2023-05-19T04:43:41.916Z,8.53
2023-05-19T04:46:12.458Z,12.95
2023-05-19T04:48:41.387Z,9.73
2023-05-19T04:51:08.380Z,8.65
2023-05-19T04:53:35.121Z,10.50
2023-05-19T04:56:02.175Z,8.00
2023-05-19T04:58:28.812Z,10.18
2023-05-19T05:00:58.776Z,9.38
2023-05-19T05:03:26.616Z,6.90
2023-05-19T05:05:53.326Z,9.30
2023-05-19T05:08:23.490Z,8.83
2023-05-19T05:10:51.722Z,8.32
2023-05-19T05:13:21.409Z,9.93
2023-05-19T05:15:48.684Z,8.60
2023-05-19T05:18:16.042Z,7.07
2023-05-19T05:20:43.479Z,9.60
2023-05-19T05:23:10.910Z,8.68
2023-05-19T05:25:38.152Z,9.82
2023-05-19T05:28:05.445Z,9.35
2023-05-19T05:30:34.063Z,7.15
2023-05-19T05:33:02.114Z,10.60
2023-05-19T05:35:29.143Z,9.55
2023-05-19T05:37:56.495Z,9.68
2023-05-19T05:40:23.117Z,10.20
2023-05-19T05:42:49.802Z,7.90
2023-05-19T05:45:16.447Z,9.50
2023-05-19T05:47:43.371Z,9.65
2023-05-19T05:50:10.889Z,11.85
2023-05-19T05:52:39.058Z,8.35
2023-05-19T05:55:07.023Z,11.85
2023-05-19T05:57:35.570Z,10.33
2023-05-19T06:00:03.981Z,10.48
2023-05-19T06:02:30.959Z,11.55
2023-05-19T06:04:57.639Z,9.70
2023-05-19T06:07:24.652Z,12.35
2023-05-19T06:09:51.363Z,9.83
2023-05-19T06:12:18.218Z,8.85
2023-05-19T06:14:44.838Z,10.90
2023-05-19T06:17:11.433Z,14.50
2023-05-19T06:19:38.019Z,14.68
2023-05-19T06:22:04.736Z,12.30
2023-05-19T06:24:31.382Z,8.50
2023-05-19T06:26:58.017Z,10.07
2023-05-19T06:29:24.628Z,8.60
2023-05-19T06:31:51.610Z,10.27
2023-05-19T06:34:18.471Z,9.77
2023-05-19T06:36:45.102Z,8.93
2023-05-19T06:39:11.692Z,11.98
2023-05-19T06:41:38.231Z,9.65
2023-05-19T06:44:07.195Z,8.60
2023-05-19T06:46:33.917Z,9.70
2023-05-19T06:49:00.808Z,12.50
2023-05-19T06:51:27.456Z,8.73
2023-05-19T06:53:54.046Z,10.02
2023-05-19T06:56:21.761Z,10.27
2023-05-19T06:58:48.530Z,9.37
2023-05-19T07:01:15.244Z,10.32
2023-05-19T07:03:42.058Z,9.63
2023-05-19T07:06:08.781Z,9.75
2023-05-19T07:08:37.343Z,10.82
2023-05-19T07:11:04.197Z,8.50
2023-05-19T07:13:30.857Z,10.85
2023-05-19T07:15:57.526Z,9.63
2023-05-19T07:18:24.203Z,10.10
2023-05-19T07:20:52.502Z,8.07
2023-05-19T07:23:19.317Z,9.60
2023-05-19T07:25:46.005Z,9.90
2023-05-19T07:28:12.696Z,8.63
2023-05-19T07:30:39.721Z,10.88
2023-05-19T07:33:06.992Z,9.35
2023-05-19T07:35:34.396Z,9.07
2023-05-19T07:38:01.529Z,8.35
2023-05-19T07:40:28.456Z,10.38
2023-05-19T07:42:56.390Z,8.82
2023-05-19T07:45:23.615Z,8.32
2023-05-19T07:47:50.588Z,8.33
2023-05-19T07:50:17.754Z,10.95
2023-05-19T07:52:45.316Z,8.98
2023-05-19T07:55:13.553Z,7.90
2023-05-19T07:57:40.154Z,9.02
2023-05-19T08:00:10.229Z,9.13
2023-05-19T08:02:40.053Z,11.52
2023-05-19T08:05:07.778Z,9.02
2023-05-19T08:07:35.200Z,7.85
2023-05-19T08:10:02.347Z,8.70
2023-05-19T08:12:33.186Z,11.03
2023-05-19T08:15:01.944Z,9.93
2023-05-19T08:17:29.609Z,8.82
2023-05-19T08:19:56.284Z,7.45
2023-05-19T08:22:22.962Z,10.25
2023-05-19T08:24:52.532Z,9.10
2023-05-19T08:27:19.237Z,12.15
2023-05-19T08:29:45.837Z,8.60
2023-05-19T08:32:13.327Z,8.95
2023-05-19T08:34:41.111Z,9.73
2023-05-19T08:37:07.922Z,8.10
2023-05-19T08:39:35.081Z,10.23
2023-05-19T08:42:02.684Z,7.15
2023-05-19T08:44:31.008Z,7.97
2023-05-19T08:47:03.070Z,7.82
2023-05-19T08:49:33.572Z,9.97
2023-05-19T08:52:25.458Z,8.20
2023-05-19T08:55:01.304Z,7.88
2023-05-19T08:57:28.514Z,7.50
2023-05-19T08:59:56.746Z,7.35
2023-05-19T09:02:23.840Z,9.47
2023-05-19T09:04:50.860Z,8.30
2023-05-19T09:07:19.238Z,8.25
2023-05-19T09:09:46.035Z,7.40
2023-05-19T09:12:13.924Z,6.90
2023-05-19T09:14:40.849Z,8.57
2023-05-19T09:17:07.616Z,7.10
2023-05-19T09:19:34.380Z,7.22
2023-05-19T09:22:03.621Z,9.55
2023-05-19T09:24:30.734Z,8.32
2023-05-19T09:26:58.517Z,7.33
2023-05-19T09:29:26.662Z,7.82
2023-05-19T09:32:01.728Z,9.85
2023-05-19T09:34:28.461Z,10.00
2023-05-19T09:36:55.313Z,9.20
2023-05-19T09:39:25.665Z,10.00
2023-05-19T09:41:56.432Z,7.07
2023-05-19T09:44:24.498Z,6.57
2023-05-19T09:46:52.895Z,8.10
2023-05-19T09:49:30.583Z,6.32
2023-05-19T09:51:58.701Z,9.43
2023-05-19T09:54:32.361Z,7.03
2023-05-19T09:57:00.295Z,8.07
2023-05-19T09:59:31.302Z,7.75
2023-05-19T10:02:01.024Z,6.00
2023-05-19T10:04:29.069Z,7.23
2023-05-19T10:06:59.905Z,9.40
2023-05-19T10:09:29.034Z,6.55
2023-05-19T10:11:57.595Z,7.47
2023-05-19T10:14:29.584Z,7.63
2023-05-19T10:16:59.882Z,6.27
2023-05-19T10:19:28.866Z,7.25
2023-05-19T10:21:56.400Z,7.13
2023-05-19T10:24:23.295Z,6.03
2023-05-19T10:26:55.344Z,6.45
2023-05-19T10:29:30.853Z,6.47
2023-05-19T10:32:03.615Z,8.13
2023-05-19T10:34:51.653Z,8.85
2023-05-19T10:37:35.960Z,7.38
2023-05-19T10:40:11.031Z,6.60
2023-05-19T10:42:57.744Z,7.67
2023-05-19T10:45:28.917Z,5.85
2023-05-19T10:47:55.986Z,7.45
2023-05-19T10:50:22.773Z,7.10
2023-05-19T10:52:56.368Z,11.73
2023-05-19T10:55:47.794Z,8.00
2023-05-19T10:58:14.439Z,9.23
2023-05-19T11:00:44.027Z,7.25
2023-05-19T11:03:15.874Z,8.30
2023-05-19T11:05:45.743Z,7.07
2023-05-19T11:08:13.479Z,8.57
2023-05-19T11:10:44.875Z,7.53
2023-05-19T11:13:19.584Z,6.45
2023-05-19T11:15:46.262Z,8.40
2023-05-19T11:18:16.166Z,6.70
2023-05-19T11:20:42.880Z,6.53
2023-05-19T11:23:10.749Z,6.10
2023-05-19T11:25:47.865Z,8.05
2023-05-19T11:28:26.254Z,8.38
2023-05-19T11:30:55.467Z,6.53
2023-05-19T11:33:27.323Z,8.33
2023-05-19T11:36:00.466Z,8.45
2023-05-19T11:38:28.641Z,5.30
2023-05-19T11:40:56.600Z,9.02
2023-05-19T11:43:25.146Z,7.88
2023-05-19T11:45:53.379Z,7.37
2023-05-19T11:48:23.832Z,7.15
2023-05-19T11:50:51.198Z,7.97
2023-05-19T11:53:19.975Z,8.30
2023-05-19T11:55:48.388Z,6.80
2023-05-19T11:58:16.064Z,7.20
2023-05-19T12:00:46.418Z,6.20
2023-05-19T12:03:13.837Z,6.45
2023-05-19T12:05:46.072Z,6.88
2023-05-19T12:08:13.733Z,8.13
2023-05-19T12:10:41.061Z,6.57
2023-05-19T12:13:11.340Z,6.32
2023-05-19T12:15:39.124Z,7.90
2023-05-19T12:18:06.956Z,8.13
2023-05-19T12:20:36.111Z,6.78
2023-05-19T12:23:04.110Z,7.07
2023-05-19T12:25:31.926Z,5.80
2023-05-19T12:28:00.528Z,5.53
2023-05-19T12:30:31.810Z,6.20
2023-05-19T12:32:59.045Z,6.88
2023-05-19T12:35:30.513Z,6.60
2023-05-19T12:37:58.001Z,7.15
2023-05-19T12:40:24.607Z,5.57
2023-05-19T12:42:53.558Z,7.85
2023-05-19T12:45:23.480Z,5.70
2023-05-19T12:47:51.327Z,5.67
2023-05-19T12:50:17.994Z,5.45
2023-05-19T12:52:52.250Z,5.85
2023-05-19T12:55:21.102Z,5.53
2023-05-19T12:57:54.942Z,5.40
2023-05-19T13:00:23.001Z,5.73
2023-05-19T13:03:02.578Z,6.40
2023-05-19T13:05:31.290Z,6.10
2023-05-19T13:07:59.965Z,6.78
2023-05-19T13:10:27.829Z,6.72
2023-05-19T13:12:59.108Z,6.47
2023-05-19T13:15:27.463Z,8.50
2023-05-19T13:17:54.751Z,6.55
2023-05-19T13:20:24.651Z,5.40
2023-05-19T13:22:52.354Z,6.40
2023-05-19T13:25:19.738Z,6.30
2023-05-19T13:27:47.194Z,7.72
2023-05-19T13:30:14.363Z,7.50
2023-05-19T13:32:41.085Z,6.07
2023-05-19T13:35:10.223Z,9.02
2023-05-19T13:37:37.005Z,6.93
2023-05-19T13:40:04.391Z,6.03
2023-05-19T13:42:33.527Z,5.80
2023-05-19T13:45:00.200Z,4.95
2023-05-19T13:47:27.215Z,7.05
2023-05-19T13:49:54.393Z,5.53
2023-05-19T13:52:22.029Z,7.15
2023-05-19T13:54:49.237Z,5.95
2023-05-19T13:57:16.674Z,6.07
2023-05-19T13:59:57.748Z,6.15
2023-05-19T14:02:30.306Z,5.53
2023-05-19T14:04:57.675Z,6.32
2023-05-19T14:07:24.402Z,9.70
2023-05-19T14:09:52.486Z,8.05
2023-05-19T14:12:27.781Z,6.43
2023-05-19T14:15:02.170Z,8.17
2023-05-19T14:17:28.907Z,5.43
2023-05-19T14:19:55.887Z,5.93
2023-05-19T14:22:22.766Z,7.07
2023-05-19T14:24:49.432Z,5.95
2023-05-19T14:27:16.133Z,6.00
2023-05-19T14:29:45.774Z,6.38
2023-05-19T14:32:13.682Z,5.72
2023-05-19T14:34:40.684Z,5.40
2023-05-19T14:37:07.326Z,4.93
2023-05-19T14:39:34.005Z,6.07
2023-05-19T14:42:01.236Z,5.40
2023-05-19T14:44:33.114Z,5.40
2023-05-19T14:47:01.370Z,5.70
2023-05-19T14:49:28.289Z,6.47
2023-05-19T14:51:54.908Z,6.23
2023-05-19T14:54:21.568Z,5.97
2023-05-19T14:56:49.445Z,5.97
2023-05-19T14:59:16.116Z,5.07
2023-05-19T15:01:43.485Z,6.43
2023-05-19T15:04:10.311Z,5.00
2023-05-19T15:06:36.991Z,5.25
2023-05-19T15:09:03.784Z,6.40
2023-05-19T15:11:30.380Z,8.32
2023-05-19T15:14:01.474Z,6.00
2023-05-19T15:16:28.166Z,6.30
2023-05-19T15:18:54.980Z,5.32
2023-05-19T15:21:21.629Z,4.80
2023-05-19T15:23:48.285Z,5.15
2023-05-19T15:26:15.049Z,6.90
2023-05-19T15:28:42.835Z,6.03
2023-05-19T15:31:09.598Z,5.97
2023-05-19T15:33:36.432Z,4.75
2023-05-19T15:36:03.107Z,7.50
2023-05-19T15:38:30.106Z,5.75
2023-05-19T15:40:57.293Z,7.07
2023-05-19T15:43:23.967Z,4.25
2023-05-19T15:45:54.993Z,6.25
2023-05-19T15:48:21.783Z,6.05
2023-05-19T15:50:49.307Z,6.82
2023-05-19T15:53:16.281Z,5.90
2023-05-19T15:55:42.978Z,4.97
2023-05-19T15:58:11.856Z,6.40
2023-05-19T16:00:38.517Z,6.57
2023-05-19T16:03:05.168Z,6.75
2023-05-19T16:05:31.854Z,5.27
2023-05-19T16:07:58.813Z,6.65
2023-05-19T16:10:27.821Z,6.22
2023-05-19T16:12:54.719Z,6.30
2023-05-19T16:15:21.277Z,5.43
2023-05-19T16:17:48.102Z,5.87
2023-05-19T16:20:15.812Z,5.40
2023-05-19T16:22:42.492Z,4.85
2023-05-19T16:25:09.784Z,5.30
2023-05-19T16:27:36.439Z,5.05
2023-05-19T16:30:03.527Z,4.93
2023-05-19T16:32:30.357Z,5.00
2023-05-19T16:34:57.464Z,5.80
2023-05-19T16:37:24.092Z,6.43
2023-05-19T16:39:50.817Z,7.47
2023-05-19T16:42:18.030Z,6.10
2023-05-19T16:44:46.844Z,7.20
2023-05-19T16:47:13.499Z,6.28
2023-05-19T16:49:41.026Z,6.93
2023-05-19T16:52:08.414Z,5.68
2023-05-19T16:54:35.083Z,6.00
2023-05-19T16:57:02.149Z,4.78
2023-05-19T16:59:29.206Z,5.05
2023-05-19T17:01:59.171Z,7.03
2023-05-19T17:04:30.671Z,5.07
2023-05-19T17:06:57.607Z,6.33
2023-05-19T17:09:27.272Z,6.20
2023-05-19T17:11:54.130Z,5.57
2023-05-19T17:14:21.706Z,6.43
2023-05-19T17:16:48.887Z,6.10
2023-05-19T17:19:16.398Z,4.70
2023-05-19T17:21:43.173Z,4.97
2023-05-19T17:24:10.204Z,5.97
2023-05-19T17:26:38.521Z,6.93
2023-05-19T17:29:05.956Z,7.03
2023-05-19T17:31:32.541Z,8.10
2023-05-19T17:33:59.401Z,6.60
2023-05-19T17:36:26.787Z,6.40
2023-05-19T17:38:53.408Z,6.45
2023-05-19T17:41:20.045Z,6.07
2023-05-19T17:43:46.665Z,6.60
2023-05-19T17:46:13.618Z,6.45
2023-05-19T17:48:40.257Z,4.85
2023-05-19T17:51:09.945Z,5.28
2023-05-19T17:53:36.966Z,5.50
2023-05-19T17:56:06.696Z,5.53
2023-05-19T17:58:33.670Z,4.43
2023-05-19T18:01:00.674Z,5.63
2023-05-19T18:03:27.805Z,5.00
2023-05-19T18:05:54.917Z,4.95
2023-05-19T18:08:21.906Z,8.07
2023-05-19T18:10:51.684Z,7.03
2023-05-19T18:13:19.249Z,6.00
2023-05-19T18:15:46.073Z,4.60
2023-05-19T18:18:12.809Z,4.82
2023-05-19T18:20:41.468Z,5.20
2023-05-19T18:23:08.235Z,5.20
2023-05-19T18:25:35.730Z,5.22
2023-05-19T18:28:02.624Z,5.68
2023-05-19T18:30:29.291Z,4.85
2023-05-19T18:32:56.255Z,5.33
2023-05-19T18:35:23.202Z,4.55
2023-05-19T18:37:50.084Z,5.18
2023-05-19T18:40:16.720Z,7.50
2023-05-19T18:42:43.372Z,6.20
2023-05-19T18:45:10.254Z,4.50
2023-05-19T18:47:37.236Z,5.60
2023-05-19T18:50:04.335Z,5.90
2023-05-19T18:52:31.463Z,4.78
2023-05-19T18:54:59.928Z,6.00
2023-05-19T18:57:27.037Z,5.53
2023-05-19T18:59:53.817Z,4.90
2023-05-19T19:02:20.384Z,5.03
2023-05-19T19:04:47.085Z,4.60
2023-05-19T19:07:13.818Z,6.03
2023-05-19T19:09:43.906Z,6.30
2023-05-19T19:12:10.997Z,6.18
2023-05-19T19:14:38.703Z,4.78
2023-05-19T19:17:05.537Z,5.00
2023-05-19T19:19:33.395Z,4.95
2023-05-19T19:22:00.322Z,4.83
2023-05-19T19:24:28.614Z,5.10
2023-05-19T19:26:55.535Z,4.70
2023-05-19T19:29:22.288Z,4.50
2023-05-19T19:31:49.095Z,5.63
2023-05-19T19:34:16.015Z,4.60
2023-05-19T19:36:42.726Z,5.25
2023-05-19T19:39:09.580Z,5.00
2023-05-19T19:41:36.812Z,5.40
2023-05-19T19:44:03.750Z,5.97
2023-05-19T19:46:30.492Z,4.67
2023-05-19T19:49:00.451Z,5.32
2023-05-19T19:51:28.144Z,5.28
2023-05-19T19:53:55.019Z,4.70
2023-05-19T19:56:24.677Z,5.57
2023-05-19T19:58:51.416Z,5.17
2023-05-19T20:01:20.610Z,6.40
2023-05-19T20:03:48.015Z,6.70
2023-05-19T20:06:14.849Z,6.47
2023-05-19T20:08:41.678Z,5.70
2023-05-19T20:11:09.656Z,5.80
2023-05-19T20:13:36.683Z,6.25
2023-05-19T20:16:03.379Z,5.68
2023-05-19T20:18:30.200Z,5.60
2023-05-19T20:20:57.064Z,6.60
2023-05-19T20:23:23.687Z,6.50
2023-05-19T20:26:06.687Z,5.80
2023-05-19T20:28:37.038Z,5.22
2023-05-19T20:31:03.882Z,5.70
2023-05-19T20:33:30.643Z,5.57
2023-05-19T20:35:57.236Z,5.40
2023-05-19T20:38:23.941Z,5.82
2023-05-19T20:40:51.134Z,6.13
2023-05-19T20:43:17.714Z,5.88
2023-05-19T20:45:44.597Z,5.68
2023-05-19T20:48:11.856Z,6.50
2023-05-19T20:50:39.712Z,6.97
2023-05-19T20:53:07.529Z,6.10
2023-05-19T20:55:36.339Z,5.60
2023-05-19T20:58:03.116Z,5.25
2023-05-19T21:00:31.537Z,5.93
2023-05-19T21:02:58.526Z,6.30
2023-05-19T21:05:25.248Z,5.72
2023-05-19T21:07:52.127Z,5.80
2023-05-19T21:10:18.880Z,5.35
2023-05-19T21:12:46.446Z,11.33
2023-05-19T21:15:13.191Z,7.53
2023-05-19T21:17:39.983Z,5.45
2023-05-19T21:20:07.151Z,5.68
2023-05-19T21:22:35.811Z,5.85
2023-05-19T21:25:02.570Z,5.20
2023-05-19T21:27:29.206Z,5.68
2023-05-19T21:29:56.156Z,6.32
2023-05-19T21:32:22.794Z,5.45
2023-05-19T21:34:49.474Z,5.82
2023-05-19T21:37:17.426Z,5.60
2023-05-19T21:39:44.492Z,6.88
2023-05-19T21:42:11.189Z,5.85
2023-05-19T21:44:37.938Z,5.05
2023-05-19T21:47:04.615Z,5.50
2023-05-19T21:49:31.530Z,6.07
2023-05-19T21:51:58.422Z,7.40
2023-05-19T21:54:25.110Z,5.43
2023-05-19T21:56:51.756Z,8.05
2023-05-19T21:59:18.624Z,5.53
2023-05-19T22:01:45.496Z,8.20
2023-05-19T22:04:13.640Z,5.38
2023-05-19T22:06:40.270Z,6.65
2023-05-19T22:09:07.425Z,6.28
2023-05-19T22:11:34.045Z,6.72
2023-05-19T22:14:00.654Z,5.17
2023-05-19T22:16:28.928Z,5.50
2023-05-19T22:18:55.901Z,5.85
2023-05-19T22:21:22.780Z,5.70
2023-05-19T22:23:49.358Z,5.45
2023-05-19T22:26:16.492Z,6.80
2023-05-19T22:28:43.196Z,6.10
2023-05-19T22:31:09.838Z,6.57
2023-05-19T22:33:36.473Z,5.28
2023-05-19T22:36:03.167Z,6.13
2023-05-19T22:38:29.824Z,5.43
2023-05-19T22:40:56.391Z,5.93
2023-05-19T22:43:23.275Z,6.05
2023-05-19T22:45:49.919Z,7.38
2023-05-19T22:48:16.845Z,6.07
2023-05-19T22:50:43.737Z,7.20
2023-05-19T22:53:10.353Z,6.15
2023-05-19T22:55:37.119Z,6.60
2023-05-19T22:58:03.809Z,6.53
2023-05-19T23:00:30.639Z,5.15
2023-05-19T23:02:58.745Z,6.43
2023-05-19T23:05:25.852Z,5.00
2023-05-19T23:07:52.738Z,6.82
2023-05-19T23:10:19.713Z,4.90
2023-05-19T23:12:46.448Z,6.35
2023-05-19T23:15:13.153Z,6.37
2023-05-19T23:17:39.797Z,6.32
2023-05-19T23:20:07.049Z,5.80
2023-05-19T23:22:33.621Z,6.03
2023-05-19T23:25:02.296Z,6.82
2023-05-19T23:27:29.202Z,5.20
2023-05-19T23:29:55.870Z,4.93
2023-05-19T23:32:22.672Z,5.00
2023-05-19T23:34:49.324Z,5.50
2023-05-19T23:37:16.213Z,6.05
2023-05-19T23:39:44.346Z,6.93
2023-05-19T23:42:12.070Z,6.40
2023-05-19T23:44:38.724Z,7.03
2023-05-19T23:47:05.720Z,5.25
2023-05-19T23:49:32.441Z,7.05
2023-05-19T23:51:59.083Z,5.93
2023-05-19T23:54:26.949Z,6.47
2023-05-19T23:56:54.722Z,6.03
2023-05-19T23:59:21.668Z,5.90
